createdAt,value
2023-02-09T00:00:13.223Z,54.17
2023-02-09T00:02:41.453Z,54.22
2023-02-09T00:05:10.796Z,54.27
2023-02-09T00:07:39.423Z,54.47
2023-02-09T00:10:07.292Z,54.71
2023-02-09T00:12:56.948Z,53.43
2023-02-09T00:15:24.843Z,54.08
2023-02-09T00:17:54.130Z,54.74
2023-02-09T00:20:22.156Z,55.22
2023-02-09T00:22:49.644Z,54.83
2023-02-09T00:25:17.733Z,54.80
2023-02-09T00:27:45.618Z,55.35
2023-02-09T00:30:13.768Z,54.82
2023-02-09T00:32:46.306Z,54.89
2023-02-09T00:35:15.334Z,55.26
2023-02-09T00:37:43.018Z,54.89
2023-02-09T00:40:12.106Z,54.78
2023-02-09T00:42:45.925Z,54.68
2023-02-09T00:45:14.051Z,55.31
2023-02-09T00:47:41.903Z,55.35
2023-02-09T00:50:09.699Z,55.73
2023-02-09T00:52:37.945Z,54.99
2023-02-09T00:55:06.111Z,54.85
2023-02-09T00:57:33.823Z,54.31
2023-02-09T01:00:02.855Z,55.04
2023-02-09T01:02:31.291Z,54.27
2023-02-09T01:05:00.098Z,54.65
2023-02-09T01:07:28.078Z,55.16
2023-02-09T01:09:56.301Z,55.09
2023-02-09T01:12:23.848Z,55.02
2023-02-09T01:14:52.259Z,55.01
2023-02-09T01:17:20.082Z,54.88
2023-02-09T01:19:51.894Z,54.86
2023-02-09T01:22:21.308Z,54.93
2023-02-09T01:24:50.604Z,55.28
2023-02-09T01:27:22.013Z,55.31
2023-02-09T01:29:49.759Z,55.34
2023-02-09T01:32:17.308Z,55.54
2023-02-09T01:34:45.421Z,55.05
2023-02-09T01:37:13.386Z,54.99
2023-02-09T01:39:41.474Z,55.63
2023-02-09T01:42:20.285Z,55.25
2023-02-09T01:45:23.706Z,55.81
2023-02-09T01:47:59.211Z,56.01
2023-02-09T01:50:27.678Z,55.74
2023-02-09T01:52:55.710Z,55.45
2023-02-09T01:55:26.955Z,54.96
2023-02-09T01:58:01.804Z,55.43
2023-02-09T02:00:31.205Z,55.49
2023-02-09T02:03:05.219Z,55.89
2023-02-09T02:05:35.711Z,55.77
2023-02-09T02:08:25.455Z,55.48
2023-02-09T02:10:53.770Z,55.52
2023-02-09T02:13:23.912Z,55.57
2023-02-09T02:16:07.348Z,56.02
2023-02-09T02:19:01.916Z,56.22
2023-02-09T02:22:11.851Z,56.28
2023-02-09T02:25:13.078Z,55.67
2023-02-09T02:27:45.643Z,55.71
2023-02-09T02:30:38.272Z,56.19
2023-02-09T02:33:21.166Z,56.49
2023-02-09T02:35:54.709Z,56.32
2023-02-09T02:38:44.176Z,56.30
2023-02-09T02:41:52.302Z,56.26
2023-02-09T02:48:41.140Z,56.04
2023-02-09T02:51:15.016Z,55.49
2023-02-09T02:53:44.111Z,55.57
2023-02-09T02:56:22.461Z,55.55
2023-02-09T02:58:52.573Z,56.24
2023-02-09T03:01:22.832Z,56.18
2023-02-09T03:03:52.029Z,56.29
2023-02-09T03:06:21.612Z,56.05
2023-02-09T03:08:55.846Z,55.35
2023-02-09T03:11:28.446Z,55.92
2023-02-09T03:14:08.392Z,56.00
2023-02-09T03:16:46.979Z,55.81
2023-02-09T03:19:43.832Z,55.86
2023-02-09T03:22:32.945Z,56.50
2023-02-09T03:25:06.445Z,57.42
2023-02-09T03:27:41.602Z,56.98
2023-02-09T03:30:12.340Z,56.41
2023-02-09T03:32:41.353Z,56.08
2023-02-09T03:35:11.907Z,55.35
2023-02-09T03:37:39.629Z,55.18
2023-02-09T03:40:08.786Z,54.97
2023-02-09T03:42:37.121Z,54.81
2023-02-09T03:45:08.052Z,55.05
2023-02-09T03:47:35.630Z,54.73
2023-02-09T03:50:07.012Z,54.66
2023-02-09T03:52:35.071Z,54.49
2023-02-09T03:55:03.494Z,55.28
2023-02-09T03:57:31.101Z,55.67
2023-02-09T03:59:59.828Z,55.43
2023-02-09T04:02:28.087Z,55.37
2023-02-09T04:04:56.603Z,55.64
2023-02-09T04:07:24.339Z,56.14
2023-02-09T04:09:53.124Z,56.33
2023-02-09T04:12:21.515Z,56.12
2023-02-09T04:14:49.438Z,55.65
2023-02-09T04:17:17.427Z,56.04
2023-02-09T04:19:53.388Z,56.25
2023-02-09T04:22:21.576Z,56.23
2023-02-09T04:24:49.432Z,55.93
2023-02-09T04:27:21.097Z,56.18
2023-02-09T04:29:49.306Z,55.83
2023-02-09T04:32:17.034Z,55.82
2023-02-09T04:34:44.937Z,56.91
2023-02-09T04:37:12.885Z,56.33
2023-02-09T04:39:41.056Z,56.52
2023-02-09T04:42:10.179Z,56.02
2023-02-09T04:44:38.115Z,56.09
2023-02-09T04:47:05.820Z,56.02
2023-02-09T04:49:34.110Z,56.57
2023-02-09T04:52:06.560Z,56.68
2023-02-09T04:54:34.274Z,56.36
2023-02-09T04:57:23.976Z,56.00
2023-02-09T04:59:51.980Z,55.88
2023-02-09T05:02:21.050Z,56.12
2023-02-09T05:04:49.303Z,56.08
2023-02-09T05:07:17.868Z,55.90
2023-02-09T05:09:46.958Z,55.73
2023-02-09T05:12:16.884Z,55.52
2023-02-09T05:14:49.951Z,55.79
2023-02-09T05:17:23.053Z,56.01
2023-02-09T05:19:56.867Z,56.18
2023-02-09T05:22:26.265Z,55.49
2023-02-09T05:25:03.815Z,56.38
2023-02-09T05:27:33.761Z,56.06
2023-02-09T05:30:08.218Z,56.45
2023-02-09T05:32:39.075Z,56.11
2023-02-09T05:35:08.512Z,56.56
2023-02-09T05:37:38.471Z,56.10
2023-02-09T05:40:07.294Z,56.28
2023-02-09T05:42:36.891Z,56.65
2023-02-09T05:45:05.751Z,56.14
2023-02-09T05:47:40.961Z,56.06
2023-02-09T05:50:12.908Z,55.92
2023-02-09T05:52:41.598Z,56.29
2023-02-09T05:55:14.369Z,56.79
2023-02-09T05:57:42.512Z,56.28
2023-02-09T06:00:12.824Z,56.22
2023-02-09T06:02:46.469Z,55.74
2023-02-09T06:05:22.210Z,55.75
2023-02-09T06:08:13.829Z,56.08
2023-02-09T06:10:44.788Z,56.80
2023-02-09T06:13:15.328Z,56.63
2023-02-09T06:15:47.875Z,57.40
2023-02-09T06:18:16.855Z,57.01
2023-02-09T06:20:45.425Z,56.83
2023-02-09T06:23:17.843Z,56.57
2023-02-09T06:25:53.289Z,56.26
2023-02-09T06:28:21.951Z,56.15
2023-02-09T06:30:52.549Z,55.59
2023-02-09T06:33:25.104Z,56.11
2023-02-09T06:36:00.796Z,56.00
2023-02-09T06:38:37.918Z,56.14
2023-02-09T06:41:07.234Z,56.23
2023-02-09T06:43:36.886Z,56.32
2023-02-09T06:46:10.178Z,56.97
2023-02-09T06:48:39.734Z,56.31
2023-02-09T06:51:15.505Z,55.86
2023-02-09T06:53:50.253Z,56.75
2023-02-09T06:56:21.580Z,55.95
2023-02-09T07:01:27.281Z,56.50
2023-02-09T07:03:56.819Z,57.23
2023-02-09T07:06:26.115Z,56.80
2023-02-09T07:08:57.783Z,56.68
2023-02-09T07:11:30.860Z,56.73
2023-02-09T07:14:04.570Z,55.90
2023-02-09T07:16:38.900Z,56.88
2023-02-09T07:21:40.682Z,58.10
2023-02-09T07:24:09.834Z,57.96
2023-02-09T07:26:39.990Z,57.95
2023-02-09T07:29:14.734Z,57.93
2023-02-09T07:31:43.306Z,57.75
2023-02-09T07:34:12.709Z,57.77
2023-02-09T07:36:47.741Z,57.84
2023-02-09T07:39:19.206Z,57.78
2023-02-09T07:41:54.033Z,57.79
2023-02-09T07:44:25.330Z,57.48
2023-02-09T07:46:55.711Z,57.22
2023-02-09T07:49:44.924Z,57.28
2023-02-09T07:52:13.235Z,57.25
2023-02-09T07:54:55.860Z,57.02
2023-02-09T07:57:24.162Z,55.93
2023-02-09T07:59:57.959Z,54.77
2023-02-09T08:02:36.436Z,54.00
2023-02-09T08:05:16.747Z,53.20
2023-02-09T08:07:49.762Z,53.29
2023-02-09T08:10:19.712Z,53.22
2023-02-09T08:13:00.527Z,52.35
2023-02-09T08:15:46.323Z,51.67
2023-02-09T08:18:19.251Z,52.12
2023-02-09T08:20:50.336Z,51.08
2023-02-09T08:23:27.221Z,50.49
2023-02-09T08:25:57.466Z,50.38
2023-02-09T08:28:43.291Z,50.33
2023-02-09T08:31:17.375Z,50.40
2023-02-09T08:33:51.155Z,49.72
2023-02-09T08:39:07.795Z,48.73
2023-02-09T08:41:39.773Z,48.46
2023-02-09T08:44:10.018Z,48.08
2023-02-09T08:46:38.804Z,48.33
2023-02-09T08:49:07.143Z,48.68
2023-02-09T08:51:35.821Z,48.07
2023-02-09T08:54:05.474Z,48.27
2023-02-09T08:56:38.860Z,48.07
2023-02-09T08:59:10.136Z,47.73
2023-02-09T09:01:47.480Z,46.57
2023-02-09T09:07:03.790Z,46.95
2023-02-09T09:09:36.811Z,45.36
2023-02-09T09:12:05.312Z,45.41
2023-02-09T09:17:17.366Z,45.46
2023-02-09T09:19:52.775Z,47.10
2023-02-09T09:22:35.096Z,43.36
2023-02-09T09:25:06.969Z,43.34
2023-02-09T09:27:43.923Z,43.70
2023-02-09T09:30:16.353Z,42.95
2023-02-09T09:32:45.872Z,43.83
2023-02-09T09:35:15.959Z,42.78
2023-02-09T09:37:47.771Z,41.76
2023-02-09T09:40:23.789Z,42.29
2023-02-09T09:42:55.949Z,42.65
2023-02-09T09:45:35.339Z,42.68
2023-02-09T09:48:14.879Z,41.35
2023-02-09T09:50:44.260Z,41.23
2023-02-09T09:53:38.775Z,39.73
2023-02-09T09:56:12.210Z,39.38
2023-02-09T09:58:50.266Z,39.08
2023-02-09T10:01:31.095Z,39.77
2023-02-09T10:04:11.804Z,40.35
2023-02-09T10:09:30.052Z,40.28
2023-02-09T10:12:08.724Z,39.98
2023-02-09T10:14:40.196Z,39.93
2023-02-09T10:17:17.248Z,39.69
2023-02-09T10:25:41.779Z,38.08
2023-02-09T10:28:25.998Z,38.26
2023-02-09T10:30:57.851Z,37.10
2023-02-09T10:33:39.955Z,36.05
2023-02-09T10:36:52.984Z,36.08
2023-02-09T10:39:25.063Z,37.19
2023-02-09T10:41:55.963Z,34.02
2023-02-09T10:47:21.851Z,35.03
2023-02-09T10:50:01.369Z,36.32
2023-02-09T10:52:36.990Z,36.69
2023-02-09T10:55:22.345Z,36.29
2023-02-09T10:57:53.687Z,34.95
2023-02-09T11:00:32.978Z,33.61
2023-02-09T11:03:04.797Z,35.07
2023-02-09T11:05:36.047Z,33.21
2023-02-09T11:08:25.772Z,32.75
2023-02-09T11:11:05.865Z,32.64
2023-02-09T11:13:35.853Z,34.52
2023-02-09T11:16:32.928Z,32.46
2023-02-09T11:19:12.955Z,34.61
2023-02-09T11:22:03.826Z,33.20
2023-02-09T11:25:14.794Z,32.90
2023-02-09T11:27:59.074Z,33.31
2023-02-09T11:30:40.346Z,31.52
2023-02-09T11:33:33.865Z,32.50
2023-02-09T11:36:30.517Z,33.89
2023-02-09T11:39:33.722Z,31.73
2023-02-09T11:42:27.352Z,31.17
2023-02-09T11:45:22.075Z,30.23
2023-02-09T11:48:20.769Z,28.83
2023-02-09T11:51:11.015Z,30.31
2023-02-09T11:54:07.704Z,30.52
2023-02-09T11:56:42.280Z,30.58
2023-02-09T11:59:24.448Z,30.88
2023-02-09T12:02:09.997Z,32.98
2023-02-09T12:04:55.595Z,31.03
2023-02-09T12:07:42.270Z,32.33
2023-02-09T12:10:30.560Z,32.36
2023-02-09T12:13:05.736Z,31.64
2023-02-09T12:15:42.596Z,32.42
2023-02-09T12:18:20.748Z,31.90
2023-02-09T12:21:08.801Z,31.10
2023-02-09T12:23:41.090Z,31.20
2023-02-09T12:26:41.050Z,32.01
2023-02-09T12:32:50.710Z,32.75
2023-02-09T12:35:39.019Z,32.92
2023-02-09T12:38:18.735Z,32.32
2023-02-09T12:41:07.218Z,31.61
2023-02-09T12:43:39.277Z,31.04
2023-02-09T12:46:24.793Z,31.62
2023-02-09T12:48:59.733Z,31.70
2023-02-09T12:51:56.708Z,33.37
2023-02-09T12:54:33.747Z,32.00
2023-02-09T12:57:16.591Z,30.92
2023-02-09T13:00:00.059Z,30.40
2023-02-09T13:02:50.824Z,31.28
2023-02-09T13:05:26.716Z,31.91
2023-02-09T13:08:06.748Z,31.82
2023-02-09T13:10:43.695Z,31.80
2023-02-09T13:13:39.724Z,32.10
2023-02-09T13:19:07.548Z,32.83
2023-02-09T13:21:53.693Z,32.82
2023-02-09T13:24:31.242Z,32.47
2023-02-09T13:27:13.773Z,32.44
2023-02-09T13:29:51.111Z,32.44
2023-02-09T13:32:43.141Z,31.72
2023-02-09T13:35:26.437Z,32.00
2023-02-09T13:38:01.757Z,31.31
2023-02-09T13:40:40.947Z,32.24
2023-02-09T13:43:24.379Z,32.28
2023-02-09T13:45:59.112Z,31.65
2023-02-09T13:48:38.842Z,31.87
2023-02-09T13:51:27.692Z,31.58
2023-02-09T13:56:39.586Z,30.41
2023-02-09T13:59:13.771Z,31.11
2023-02-09T14:01:49.757Z,32.87
2023-02-09T14:04:29.087Z,31.51
2023-02-09T14:09:57.889Z,32.44
2023-02-09T14:13:00.046Z,32.30
2023-02-09T14:16:00.762Z,32.46
2023-02-09T14:18:51.703Z,31.75
2023-02-09T14:21:26.766Z,32.67
2023-02-09T14:23:57.790Z,33.13
2023-02-09T14:26:53.063Z,32.55
2023-02-09T14:29:33.760Z,32.56
2023-02-09T14:32:33.551Z,34.11
2023-02-09T14:35:35.035Z,34.30
2023-02-09T14:38:40.170Z,33.82
2023-02-09T14:41:28.773Z,33.33
2023-02-09T14:44:05.368Z,32.17
2023-02-09T14:46:59.995Z,33.35
2023-02-09T14:52:15.616Z,33.84
2023-02-09T14:54:47.777Z,33.73
2023-02-09T14:57:24.930Z,33.82
2023-02-09T14:59:58.758Z,33.21
2023-02-09T15:05:23.742Z,33.74
2023-02-09T15:08:07.677Z,33.82
2023-02-09T15:10:38.763Z,33.95
2023-02-09T15:13:25.845Z,34.30
2023-02-09T15:16:04.919Z,34.50
2023-02-09T15:18:37.545Z,34.71
2023-02-09T15:21:06.725Z,34.30
2023-02-09T15:23:35.278Z,34.39
2023-02-09T15:26:20.342Z,34.93
2023-02-09T15:28:52.166Z,34.93
2023-02-09T15:31:30.030Z,35.29
2023-02-09T15:34:15.672Z,35.35
2023-02-09T15:36:48.280Z,35.33
2023-02-09T15:39:28.378Z,35.29
2023-02-09T15:42:08.748Z,35.26
2023-02-09T15:44:59.165Z,35.34
2023-02-09T15:47:53.771Z,35.46
2023-02-09T15:50:28.535Z,35.85
2023-02-09T15:52:58.664Z,36.41
2023-02-09T15:58:04.152Z,37.20
2023-02-09T16:00:37.781Z,37.97
2023-02-09T16:03:17.172Z,38.48
2023-02-09T16:06:03.889Z,39.07
2023-02-09T16:11:28.647Z,39.21
2023-02-09T16:14:02.181Z,39.12
2023-02-09T16:19:50.260Z,39.60
2023-02-09T16:22:22.673Z,39.91
2023-02-09T16:24:50.412Z,39.92
2023-02-09T16:27:25.355Z,39.79
2023-02-09T16:29:53.987Z,40.41
2023-02-09T16:32:23.992Z,40.34
2023-02-09T16:34:52.072Z,40.69
2023-02-09T16:37:38.000Z,41.39
2023-02-09T16:40:24.435Z,41.62
2023-02-09T16:42:52.818Z,41.66
2023-02-09T16:45:20.574Z,41.95
2023-02-09T16:47:54.259Z,41.93
2023-02-09T16:50:38.377Z,42.06
2023-02-09T16:53:17.709Z,42.29
2023-02-09T16:55:49.685Z,42.14
2023-02-09T16:58:18.768Z,42.37
2023-02-09T17:00:50.007Z,42.45
2023-02-09T17:03:23.534Z,42.67
2023-02-09T17:05:53.442Z,43.29
2023-02-09T17:08:31.679Z,43.44
2023-02-09T17:11:01.690Z,43.86
2023-02-09T17:13:30.938Z,43.73
2023-02-09T17:16:01.248Z,43.93
2023-02-09T17:18:33.290Z,44.30
2023-02-09T17:21:25.106Z,44.02
2023-02-09T17:23:54.585Z,44.08
2023-02-09T17:26:25.487Z,44.03
2023-02-09T17:28:53.844Z,44.38
2023-02-09T17:31:27.703Z,45.04
2023-02-09T17:33:58.033Z,45.48
2023-02-09T17:36:28.315Z,45.54
2023-02-09T17:38:58.566Z,45.42
2023-02-09T17:41:37.150Z,45.94
2023-02-09T17:44:26.522Z,45.78
2023-02-09T17:46:59.278Z,45.81
2023-02-09T17:49:27.709Z,46.07
2023-02-09T17:51:55.198Z,46.18
2023-02-09T17:54:22.771Z,46.44
2023-02-09T17:56:50.771Z,46.21
2023-02-09T17:59:20.240Z,46.19
2023-02-09T18:01:50.303Z,46.53
2023-02-09T18:04:21.100Z,46.57
2023-02-09T18:06:48.703Z,46.81
2023-02-09T18:09:16.885Z,46.42
2023-02-09T18:11:44.632Z,46.92
2023-02-09T18:14:13.571Z,47.26
2023-02-09T18:16:42.772Z,47.26
2023-02-09T18:19:12.483Z,47.62
2023-02-09T18:21:47.397Z,48.07
2023-02-09T18:24:15.996Z,47.80
2023-02-09T18:26:43.455Z,48.29
2023-02-09T18:29:11.007Z,47.76
2023-02-09T18:31:39.270Z,48.01
2023-02-09T18:34:07.926Z,47.90
2023-02-09T18:36:36.149Z,47.94
2023-02-09T18:39:04.730Z,48.38
2023-02-09T18:41:32.768Z,48.96
2023-02-09T18:44:02.819Z,48.07
2023-02-09T18:46:30.659Z,48.69
2023-02-09T18:48:58.892Z,48.78
2023-02-09T18:51:26.546Z,49.26
2023-02-09T18:53:54.511Z,48.83
2023-02-09T18:56:25.692Z,49.34
2023-02-09T18:58:53.311Z,48.04
2023-02-09T19:01:23.539Z,48.90
2023-02-09T19:03:53.170Z,49.51
2023-02-09T19:06:22.308Z,49.28
2023-02-09T19:08:51.623Z,48.92
2023-02-09T19:11:21.733Z,49.15
2023-02-09T19:14:09.134Z,49.42
2023-02-09T19:16:37.566Z,49.17
2023-02-09T19:19:05.725Z,49.26
2023-02-09T19:21:33.252Z,48.33
2023-02-09T19:24:08.758Z,48.17
2023-02-09T19:26:37.090Z,49.72
2023-02-09T19:29:06.315Z,50.35
2023-02-09T19:31:33.870Z,50.44
2023-02-09T19:34:01.832Z,50.53
2023-02-09T19:36:29.360Z,50.62
2023-02-09T19:38:57.453Z,50.47
2023-02-09T19:41:25.738Z,50.77
2023-02-09T19:43:57.564Z,50.30
2023-02-09T19:46:26.015Z,50.96
2023-02-09T19:48:53.934Z,50.50
2023-02-09T19:51:22.269Z,50.65
2023-02-09T19:53:50.717Z,50.77
2023-02-09T19:56:23.680Z,51.00
2023-02-09T19:58:52.019Z,51.28
2023-02-09T20:01:20.346Z,51.08
2023-02-09T20:03:49.648Z,50.72
2023-02-09T20:06:18.322Z,50.68
2023-02-09T20:08:48.605Z,51.15
2023-02-09T20:11:19.807Z,50.91
2023-02-09T20:13:53.906Z,50.81
2023-02-09T20:16:24.366Z,50.60
2023-02-09T20:18:56.055Z,50.55
2023-02-09T20:21:24.502Z,50.74
2023-02-09T20:23:56.119Z,50.95
2023-02-09T20:26:29.540Z,51.55
2023-02-09T20:28:57.918Z,52.00
2023-02-09T20:31:28.786Z,52.31
2023-02-09T20:33:56.457Z,51.83
2023-02-09T20:36:25.609Z,51.84
2023-02-09T20:38:53.523Z,51.10
2023-02-09T20:41:21.170Z,51.55
2023-02-09T20:44:07.452Z,52.24
2023-02-09T20:46:54.556Z,52.01
2023-02-09T20:49:23.917Z,52.42
2023-02-09T20:51:52.165Z,52.10
2023-02-09T20:54:19.784Z,51.98
2023-02-09T20:56:47.659Z,52.57
2023-02-09T20:59:15.990Z,51.84
2023-02-09T21:01:43.616Z,51.12
2023-02-09T21:04:11.237Z,51.65
2023-02-09T21:06:39.365Z,52.38
2023-02-09T21:09:08.144Z,52.68
2023-02-09T21:11:36.009Z,52.71
2023-02-09T21:14:04.386Z,53.92
2023-02-09T21:16:32.348Z,53.28
2023-02-09T21:19:00.492Z,53.28
2023-02-09T21:21:29.471Z,53.28
2023-02-09T21:23:57.029Z,53.03
2023-02-09T21:26:24.565Z,53.05
2023-02-09T21:28:56.637Z,53.43
2023-02-09T21:31:26.909Z,53.38
2023-02-09T21:33:54.900Z,52.90
2023-02-09T21:36:22.774Z,52.51
2023-02-09T21:38:50.459Z,51.69
2023-02-09T21:41:40.738Z,51.80
2023-02-09T21:44:10.090Z,52.03
2023-02-09T21:46:37.866Z,52.26
2023-02-09T21:49:05.571Z,53.15
2023-02-09T21:51:33.308Z,52.07
2023-02-09T21:54:01.310Z,52.12
2023-02-09T21:56:28.806Z,52.35
2023-02-09T21:58:56.281Z,52.06
2023-02-09T22:01:24.739Z,52.02
2023-02-09T22:03:57.205Z,51.77
2023-02-09T22:06:25.685Z,51.91
2023-02-09T22:08:53.796Z,52.31
2023-02-09T22:11:21.414Z,52.61
2023-02-09T22:13:52.925Z,51.77
2023-02-09T22:16:22.086Z,52.41
2023-02-09T22:18:50.059Z,52.58
2023-02-09T22:21:44.598Z,52.86
2023-02-09T22:24:24.292Z,52.64
2023-02-09T22:27:15.516Z,53.11
2023-02-09T22:29:54.726Z,52.42
2023-02-09T22:32:45.553Z,52.59
2023-02-09T22:35:24.730Z,53.65
2023-02-09T22:38:15.727Z,53.54
2023-02-09T22:40:54.732Z,53.14
2023-02-09T22:43:45.486Z,53.59
2023-02-09T22:46:26.812Z,53.86
2023-02-09T22:49:20.228Z,53.37
2023-02-09T22:51:59.718Z,53.80
2023-02-09T22:54:50.740Z,53.14
2023-02-09T22:57:29.702Z,53.60
2023-02-09T23:00:07.749Z,53.16
2023-02-09T23:02:36.193Z,53.87
2023-02-09T23:05:04.698Z,54.18
2023-02-09T23:07:32.392Z,54.86
2023-02-09T23:09:59.965Z,54.08
2023-02-09T23:12:28.235Z,54.01
2023-02-09T23:14:55.629Z,54.07
2023-02-09T23:17:23.380Z,53.96
2023-02-09T23:19:51.143Z,53.77
2023-02-09T23:22:18.746Z,53.41
2023-02-09T23:24:46.397Z,53.63
2023-02-09T23:27:14.590Z,53.28
2023-02-09T23:29:42.022Z,53.87
2023-02-09T23:32:09.609Z,53.77
2023-02-09T23:34:37.733Z,53.72
2023-02-09T23:37:13.553Z,53.91
2023-02-09T23:39:46.700Z,54.68
2023-02-09T23:42:14.120Z,54.77
2023-02-09T23:44:43.961Z,54.39
2023-02-09T23:47:12.048Z,54.34
2023-02-09T23:49:39.902Z,55.07
2023-02-09T23:52:07.735Z,55.00
2023-02-09T23:54:35.550Z,54.93
2023-02-09T23:57:03.351Z,54.86
2023-02-09T23:59:31.242Z,55.34
